createdAt,value
2023-02-11T00:03:57.410Z,-1.25
2023-02-11T00:18:58.835Z,-1.41
2023-02-11T00:34:00.287Z,-1.88
2023-02-11T00:49:01.748Z,-1.58
2023-02-11T01:04:03.157Z,-1.70
2023-02-11T01:19:04.649Z,-1.76
2023-02-11T01:34:06.084Z,-1.78
2023-02-11T01:49:07.640Z,-1.83
2023-02-11T02:04:09.084Z,-1.69
2023-02-11T02:19:10.481Z,-1.85
2023-02-11T02:34:11.959Z,-1.44
2023-02-11T02:49:13.557Z,-0.84
2023-02-11T03:04:15.030Z,-0.97
2023-02-11T03:19:16.447Z,-0.56
2023-02-11T03:34:17.868Z,-1.05
2023-02-11T03:49:20.073Z,-0.76
2023-02-11T04:04:21.472Z,-0.70
2023-02-11T04:19:22.863Z,-0.55
2023-02-11T04:34:24.555Z,-0.01
2023-02-11T04:49:25.957Z,0.05
2023-02-11T05:04:27.500Z,0.12
2023-02-11T05:19:28.970Z,-0.07
2023-02-11T05:34:30.414Z,-0.08
2023-02-11T05:49:31.838Z,-0.39
2023-02-11T06:04:33.273Z,-0.51
2023-02-11T06:19:34.692Z,-0.65
2023-02-11T06:34:36.104Z,-0.14
2023-02-11T06:49:37.550Z,0.17
2023-02-11T07:04:38.960Z,-0.04
2023-02-11T07:19:40.567Z,-0.01
2023-02-11T07:34:42.089Z,0.26
2023-02-11T07:49:43.627Z,0.70
2023-02-11T08:04:45.025Z,0.83
2023-02-11T08:19:46.474Z,1.32
2023-02-11T08:34:47.874Z,1.62
2023-02-11T08:49:49.741Z,2.53
2023-02-11T09:04:51.124Z,3.98
2023-02-11T09:19:52.604Z,5.46
2023-02-11T09:34:54.062Z,8.96
2023-02-11T09:49:55.498Z,7.66
2023-02-11T10:04:57.147Z,8.03
2023-02-11T10:19:58.557Z,8.71
2023-02-11T10:34:59.965Z,8.39
2023-02-11T10:50:03.680Z,8.53
2023-02-11T11:05:05.651Z,9.00
2023-02-11T11:20:07.168Z,9.76
2023-02-11T11:35:10.085Z,9.71
2023-02-11T11:50:11.520Z,10.90
2023-02-11T12:05:13.009Z,9.16
2023-02-11T12:20:14.681Z,7.45
2023-02-11T12:35:16.542Z,7.89
2023-02-11T12:50:18.325Z,7.48
2023-02-11T13:05:19.770Z,7.43
2023-02-11T13:20:21.151Z,8.57
2023-02-11T13:35:23.735Z,8.15
2023-02-11T13:50:36.152Z,7.20
2023-02-11T14:05:56.515Z,6.80
2023-02-11T14:21:00.138Z,6.91
2023-02-11T14:36:03.100Z,6.77
2023-02-11T14:51:04.724Z,6.55
2023-02-11T15:06:06.532Z,6.33
2023-02-11T15:21:08.260Z,6.04
2023-02-11T15:36:09.683Z,5.84
2023-02-11T15:51:11.143Z,5.71
2023-02-11T16:06:12.794Z,5.39
2023-02-11T16:21:15.849Z,5.19
2023-02-11T16:36:17.420Z,5.01
2023-02-11T16:51:18.915Z,4.88
2023-02-11T17:06:20.406Z,4.78
2023-02-11T17:21:21.844Z,4.69
2023-02-11T17:36:23.265Z,4.49
2023-02-11T17:51:24.764Z,4.46
2023-02-11T18:06:26.173Z,4.35
2023-02-11T18:21:27.682Z,4.19
2023-02-11T18:36:29.282Z,4.15
2023-02-11T18:51:32.450Z,4.18
2023-02-11T19:06:33.898Z,4.02
2023-02-11T19:21:35.606Z,4.09
2023-02-11T19:36:37.165Z,3.97
2023-02-11T19:51:39.457Z,3.93
2023-02-11T20:06:41.484Z,3.92
2023-02-11T20:21:46.247Z,3.81
2023-02-11T20:36:52.219Z,3.75
2023-02-11T20:51:54.314Z,3.71
2023-02-11T21:06:56.498Z,3.66
2023-02-11T21:22:00.565Z,3.74
2023-02-11T21:37:02.051Z,3.86
2023-02-11T21:52:03.471Z,3.68
2023-02-11T22:07:04.932Z,3.45
2023-02-11T22:22:08.029Z,3.50
2023-02-11T22:37:09.414Z,3.73
2023-02-11T22:52:10.880Z,3.67
2023-02-11T23:07:12.324Z,3.82
2023-02-11T23:22:13.774Z,3.81
2023-02-11T23:37:15.197Z,3.76
2023-02-11T23:52:16.622Z,3.70
